| time (UTC) | temp C | wind direction | speed KPH | gust KPH | rain 1hr cm | rain 24hr cm | rain mn cm | humidity % | barometer mb |
| 20260510031041 | 13 | 182 | 8.0 | 17.7 | 0.00 | 0.84 | 0.84 | 82 | 1006.1 |
| 20260510030547 | 13 | 163 | 4.8 | 14.5 | 0.00 | 0.84 | 0.84 | 82 | 1006.1 |
| 20260510030029 | 12 | 190 | 6.4 | 14.5 | 0.00 | 0.84 | 0.84 | 83 | 1006.2 |
| 20260510025536 | 12 | 169 | 6.4 | 17.7 | 0.00 | 0.84 | 0.84 | 83 | 1006.3 |
| 20260510025028 | 12 | 178 | 4.8 | 17.7 | 0.00 | 0.84 | 0.84 | 83 | 1006.2 |
| 20260510024541 | 12 | 149 | 6.4 | 17.7 | 0.00 | 0.84 | 0.84 | 83 | 1006.2 |
| 20260510024045 | 12 | 157 | 6.4 | 19.3 | 0.00 | 0.84 | 0.84 | 83 | 1006.3 |
| 20260510023548 | 12 | 197 | 9.7 | 17.7 | 0.00 | 0.84 | 0.84 | 83 | 1006.2 |
| 20260510023056 | 12 | 182 | 6.4 | 17.7 | 0.00 | 0.84 | 0.84 | 83 | 1006.3 |
| 20260510022504 | 12 | 232 | 8.0 | 19.3 | 0.00 | 0.84 | 0.84 | 82 | 1006.2 |
| 20260510022001 | 12 | 190 | 8.0 | 19.3 | 0.00 | 0.84 | 0.84 | 82 | 1006.2 |
| 20260510021553 | 12 | 180 | 6.4 | 16.1 | 0.00 | 0.84 | 0.84 | 82 | 1006.1 |
| 20260510021006 | 12 | 223 | 6.4 | 25.7 | 0.00 | 0.84 | 0.84 | 82 | 1006.0 |
| 20260510020515 | 12 | 168 | 8.0 | 19.3 | 0.00 | 0.84 | 0.84 | 83 | 1006.0 |
| 20260510020023 | 12 | 186 | 6.4 | 17.7 | 0.00 | 0.84 | 0.84 | 83 | 1005.9 |
| 20260510015532 | 12 | 182 | 9.7 | 17.7 | 0.00 | 0.84 | 0.84 | 83 | 1005.9 |
| 20260510015040 | 12 | 154 | 6.4 | 17.7 | 0.00 | 0.84 | 0.84 | 83 | 1005.9 |
| 20260510014533 | 12 | 194 | 4.8 | 22.5 | 0.00 | 0.84 | 0.84 | 84 | 1005.8 |
| 20260510014016 | 12 | 149 | 6.4 | 22.5 | 0.00 | 0.84 | 0.84 | 84 | 1005.7 |
| 20260510013505 | 12 | 194 | 6.4 | 17.7 | 0.00 | 0.84 | 0.84 | 84 | 1005.7 |
| 20260510013022 | 12 | 183 | 8.0 | 19.3 | 0.00 | 0.84 | 0.84 | 85 | 1005.6 |
| 20260510012527 | 12 | 198 | 6.4 | 17.7 | 0.00 | 0.84 | 0.84 | 85 | 1005.6 |
| 20260510012031 | 12 | 130 | 6.4 | 19.3 | 0.00 | 0.84 | 0.84 | 86 | 1005.4 |
| 20260510011536 | 12 | 185 | 8.0 | 25.7 | 0.00 | 0.84 | 0.84 | 86 | 1005.4 |
| 20260510011021 | 12 | 165 | 6.4 | 19.3 | 0.00 | 0.84 | 0.84 | 87 | 1005.5 |
| 20260510010505 | 12 | 219 | 9.7 | 19.3 | 0.03 | 0.84 | 0.84 | 87 | 1005.4 |
| 20260510010013 | 12 | 175 | 8.0 | 19.3 | 0.03 | 0.84 | 0.84 | 87 | 1005.4 |
| 20260510005513 | 12 | 191 | 6.4 | 30.6 | 0.05 | 0.84 | 0.84 | 88 | 1005.3 |
| 20260510005024 | 11 | 173 | 9.7 | 30.6 | 0.10 | 0.84 | 0.84 | 88 | 1005.4 |
| 20260510004532 | 11 | 173 | 9.7 | 22.5 | 0.15 | 0.84 | 0.84 | 89 | 1005.3 |
| 20260510004041 | 11 | 165 | 9.7 | 19.3 | 0.30 | 0.84 | 0.84 | 90 | 1005.2 |
| 20260510003556 | 11 | 196 | 4.8 | 20.9 | 0.38 | 0.84 | 0.84 | 90 | 1005.1 |
| 20260510003100 | 11 | 167 | 4.8 | 16.1 | 0.43 | 0.84 | 0.84 | 91 | 1004.9 |
| 20260510002505 | 11 | 250 | 6.4 | 24.1 | 0.48 | 0.84 | 0.84 | 91 | 1004.9 |
| 20260510002019 | 11 | 181 | 8.0 | 24.1 | 0.51 | 0.84 | 0.84 | 91 | 1005.0 |
| 20260510001523 | 11 | 167 | 3.2 | 19.3 | 0.56 | 0.84 | 0.84 | 91 | 1005.0 |
| 20260510001037 | 11 | 202 | 3.2 | 12.9 | 0.64 | 0.84 | 0.84 | 92 | 1005.1 |
| 20260510000540 | 11 | 136 | 4.8 | 25.7 | 0.66 | 0.84 | 0.84 | 92 | 1004.8 |
| 20260510000018 | 11 | 180 | 4.8 | 25.7 | 0.66 | 0.81 | 0.81 | 92 | 1004.9 |
| 20260509235509 | 11 | 175 | 8.0 | 17.7 | 0.66 | 0.79 | 0.79 | 92 | 1005.6 |
| 20260509235012 | 10 | 175 | 4.8 | 16.1 | 0.64 | 0.71 | 0.71 | 92 | 1006.3 |
| 20260509234536 | 10 | 186 | 4.8 | 9.7 | 0.61 | 0.66 | 0.66 | 92 | 1006.4 |
| 20260509234007 | 10 | 219 | 1.6 | 8.0 | 0.51 | 0.53 | 0.53 | 92 | 1006.5 |
| 20260509233518 | 10 | 223 | 3.2 | 11.3 | 0.46 | 0.46 | 0.46 | 91 | 1006.5 |
| 20260509233059 | 10 | 217 | 3.2 | 11.3 | 0.41 | 0.41 | 0.41 | 91 | 1006.5 |
| 20260509232545 | 10 | 205 | 3.2 | 14.5 | 0.36 | 0.36 | 0.36 | 91 | 1006.5 |
| 20260509232054 | 10 | 244 | 3.2 | 16.1 | 0.33 | 0.33 | 0.33 | 91 | 1006.4 |
| 20260509231611 | 10 | 277 | 8.0 | 24.1 | 0.28 | 0.28 | 0.30 | 90 | 1006.4 |
| 20260509231104 | 10 | 236 | 4.8 | 14.5 | 0.23 | 0.23 | 0.23 | 89 | 1006.6 |
| 20260509230549 | 10 | 333 | 4.8 | 27.4 | 0.18 | 0.18 | 0.18 | 88 | 1006.3 |
| 20260509230106 | 10 | 256 | 4.8 | 27.4 | 0.15 | 0.15 | 0.15 | 88 | 1006.2 |
| 20260509225503 | 11 | 251 | 9.7 | 27.4 | 0.13 | 0.13 | 0.13 | 86 | 1005.2 |
| 20260509225001 | 11 | 316 | 9.7 | 27.4 | 0.10 | 0.10 | 0.10 | 83 | 1005.3 |
| 20260509224554 | 12 | 221 | 6.4 | 17.7 | 0.05 | 0.05 | 0.05 | 79 | 1005.4 |
| 20260509224055 | 13 | 301 | 8.0 | 17.7 | 0.03 | 0.03 | 0.03 | 76 | 1005.3 |
| 20260509223553 | 15 | 301 | 4.8 | 11.3 | 0.00 | 0.00 | 0.03 | 72 | 1004.6 |
| 20260509223030 | 17 | 268 | 3.2 | 11.3 | 0.00 | 0.00 | 0.00 | 65 | 1003.9 |
| 20260509222528 | 18 | 231 | 3.2 | 11.3 | 0.00 | 0.00 | 0.00 | 60 | 1003.3 |
| 20260509222027 | 18 | 236 | 1.6 | 11.3 | 0.00 | 0.00 | 0.00 | 57 | 1003.1 |
| 20260509221535 | 18 | 225 | 3.2 | 11.3 | 0.00 | 0.00 | 0.00 | 56 | 1003.0 |
| 20260509221044 | 18 | 202 | 3.2 | 11.3 | 0.00 | 0.00 | 0.00 | 57 | 1002.9 |
| 20260509220546 | 18 | 214 | 1.6 | 16.1 | 0.00 | 0.00 | 0.00 | 55 | 1002.8 |
| 20260509220054 | 18 | 209 | 3.2 | 22.5 | 0.00 | 0.00 | 0.00 | 55 | 1002.7 |
| 20260509215507 | 18 | 202 | 8.0 | 24.1 | 0.00 | 0.00 | 0.00 | 54 | 1002.7 |
| 20260509215039 | 19 | 190 | 6.4 | 22.5 | 0.00 | 0.00 | 0.00 | 53 | 1002.7 |
| 20260509214546 | 19 | 153 | 9.7 | 24.1 | 0.00 | 0.00 | 0.00 | 53 | 1002.6 |
| 20260509214045 | 19 | 231 | 4.8 | 25.7 | 0.00 | 0.00 | 0.00 | 52 | 1002.5 |
| 20260509213531 | 19 | 195 | 8.0 | 25.7 | 0.00 | 0.00 | 0.00 | 52 | 1002.6 |
| 20260509213039 | 19 | 217 | 1.6 | 14.5 | 0.00 | 0.00 | 0.00 | 56 | 1002.5 |
| 20260509212546 | 19 | 205 | 4.8 | 27.4 | 0.00 | 0.00 | 0.00 | 53 | 1002.6 |
| 20260509212057 | 20 | 209 | 9.7 | 27.4 | 0.00 | 0.00 | 0.00 | 52 | 1002.6 |
| 20260509211502 | 20 | 171 | 9.7 | 24.1 | 0.00 | 0.00 | 0.00 | 52 | 1002.5 |
| 20260509211014 | 19 | 150 | 8.0 | 24.1 | 0.00 | 0.00 | 0.00 | 52 | 1002.6 |
| 20260509210515 | 19 | 185 | 8.0 | 25.7 | 0.00 | 0.00 | 0.00 | 53 | 1002.7 |
| 20260509210111 | 19 | 195 | 9.7 | 25.7 | 0.00 | 0.00 | 0.00 | 54 | 1002.8 |
| 20260509205549 | 19 | 172 | 4.8 | 29.0 | 0.00 | 0.00 | 0.00 | 55 | 1002.9 |
| 20260509205054 | 20 | 234 | 6.4 | 29.0 | 0.00 | 0.00 | 0.00 | 54 | 1002.9 |
| 20260509204503 | 20 | 194 | 3.2 | 27.4 | 0.00 | 0.00 | 0.00 | 54 | 1003.0 |
| 20260509204024 | 19 | 200 | 6.4 | 27.4 | 0.00 | 0.00 | 0.00 | 54 | 1003.0 |
| 20260509203601 | 19 | 192 | 4.8 | 19.3 | 0.00 | 0.00 | 0.00 | 55 | 1003.0 |
| 20260509203503 | 19 | 178 | 3.2 | 19.3 | 0.00 | 0.00 | 0.00 | 57 | 1003.0 |
| 20260509203046 | 18 | 175 | 6.4 | 22.5 | 0.00 | 0.00 | 0.00 | 55 | 1003.1 |
| 20260509202552 | 18 | 129 | 3.2 | 20.9 | 0.00 | 0.00 | 0.00 | 55 | 1003.4 |
| 20260509202057 | 19 | 161 | 9.7 | 29.0 | 0.00 | 0.00 | 0.00 | 54 | 1003.4 |
| 20260509201503 | 19 | 166 | 4.8 | 16.1 | 0.00 | 0.00 | 0.00 | 53 | 1003.6 |
| 20260509201046 | 19 | 163 | 3.2 | 16.1 | 0.00 | 0.00 | 0.00 | 54 | 1003.5 |
| 20260509200555 | 19 | 284 | 6.4 | 24.1 | 0.00 | 0.00 | 0.00 | 52 | 1003.5 |
| 20260509200001 | 19 | 223 | 6.4 | 24.1 | 0.00 | 0.00 | 0.00 | 53 | 1003.4 |
| 20260509195514 | 19 | 211 | 6.4 | 22.5 | 0.00 | 0.00 | 0.00 | 53 | 1003.4 |
| 20260509195031 | 19 | 263 | 8.0 | 22.5 | 0.00 | 0.00 | 0.00 | 53 | 1003.5 |
| 20260509194536 | 19 | 140 | 6.4 | 19.3 | 0.00 | 0.00 | 0.00 | 53 | 1003.5 |
| 20260509194052 | 18 | 207 | 6.4 | 24.1 | 0.00 | 0.00 | 0.00 | 56 | 1003.7 |
| 20260509193558 | 18 | 185 | 8.0 | 22.5 | 0.00 | 0.00 | 0.00 | 56 | 1003.9 |
| 20260509193500 | 18 | 188 | 6.4 | 19.3 | 0.00 | 0.00 | 0.00 | 56 | 1003.9 |
| 20260509193019 | 18 | 169 | 4.8 | 19.3 | 0.00 | 0.00 | 0.00 | 59 | 1004.0 |
| 20260509192521 | 18 | 240 | 8.0 | 19.3 | 0.00 | 0.00 | 0.00 | 61 | 1003.9 |
| 20260509192030 | 18 | 225 | 4.8 | 22.5 | 0.00 | 0.00 | 0.00 | 64 | 1004.1 |
| 20260509191544 | 18 | 239 | 9.7 | 22.5 | 0.00 | 0.00 | 0.00 | 60 | 1004.2 |
| 20260509191047 | 19 | 224 | 8.0 | 22.5 | 0.00 | 0.00 | 0.00 | 55 | 1004.4 |
| 20260509190554 | 18 | 176 | 4.8 | 24.1 | 0.00 | 0.00 | 0.00 | 57 | 1004.3 |
| 20260509190049 | 18 | 234 | 6.4 | 24.1 | 0.00 | 0.00 | 0.00 | 60 | 1004.2 |
| 20260509185529 | 18 | 233 | 3.2 | 22.5 | 0.00 | 0.00 | 0.00 | 59 | 1004.3 |
| 20260509185033 | 18 | 126 | 8.0 | 22.5 | 0.00 | 0.00 | 0.00 | 58 | 1004.5 |
| 20260509184545 | 18 | 229 | 8.0 | 19.3 | 0.00 | 0.00 | 0.00 | 59 | 1004.7 |
| 20260509184042 | 18 | 243 | 6.4 | 19.3 | 0.00 | 0.00 | 0.00 | 59 | 1004.8 |
| 20260509183550 | 18 | 197 | 6.4 | 17.7 | 0.00 | 0.00 | 0.00 | 59 | 1004.9 |
| 20260509183041 | 17 | 217 | 6.4 | 20.9 | 0.00 | 0.00 | 0.00 | 60 | 1004.7 |
| 20260509182547 | 17 | 184 | 9.7 | 20.9 | 0.00 | 0.00 | 0.00 | 60 | 1004.5 |
| 20260509182038 | 17 | 175 | 3.2 | 17.7 | 0.00 | 0.00 | 0.00 | 67 | 1004.7 |
| 20260509181543 | 16 | 199 | 4.8 | 11.3 | 0.00 | 0.00 | 0.00 | 68 | 1004.9 |
| 20260509181055 | 16 | 221 | 3.2 | 14.5 | 0.00 | 0.00 | 0.00 | 72 | 1004.8 |
| 20260509180601 | 16 | 255 | 6.4 | 14.5 | 0.00 | 0.00 | 0.00 | 72 | 1004.9 |
| 20260509180054 | 16 | 254 | 3.2 | 22.5 | 0.00 | 0.00 | 0.00 | 71 | 1005.1 |
| 20260509175558 | 16 | 288 | 3.2 | 22.5 | 0.00 | 0.00 | 0.00 | 71 | 1005.0 |
| 20260509175502 | 16 | 287 | 4.8 | 22.5 | 0.00 | 0.00 | 0.00 | 71 | 1005.1 |
| 20260509175046 | 16 | 237 | 4.8 | 14.5 | 0.00 | 0.00 | 0.00 | 71 | 1005.0 |
| 20260509174554 | 16 | 245 | 4.8 | 9.7 | 0.00 | 0.00 | 0.00 | 72 | 1005.2 |
| 20260509174005 | 15 | 242 | 3.2 | 8.0 | 0.00 | 0.00 | 0.00 | 73 | 1005.1 |
| 20260509173522 | 15 | 243 | 4.8 | 8.0 | 0.00 | 0.00 | 0.00 | 73 | 1005.1 |
| 20260509173103 | 15 | 198 | 1.6 | 6.4 | 0.00 | 0.00 | 0.00 | 74 | 1005.1 |
| 20260509172510 | 15 | 243 | 3.2 | 14.5 | 0.00 | 0.00 | 0.00 | 73 | 1005.4 |
| 20260509172017 | 15 | 269 | 6.4 | 14.5 | 0.00 | 0.00 | 0.00 | 73 | 1005.5 |
| 20260509171529 | 16 | 254 | 3.2 | 11.3 | 0.00 | 0.00 | 0.00 | 73 | 1005.7 |
| 20260509171032 | 16 | 237 | 1.6 | 11.3 | 0.00 | 0.00 | 0.00 | 71 | 1005.8 |
| 20260509170543 | 16 | 232 | 3.2 | 19.3 | 0.00 | 0.00 | 0.00 | 69 | 1005.7 |
| 20260509170058 | 16 | 254 | 4.8 | 19.3 | 0.00 | 0.00 | 0.00 | 69 | 1005.8 |
| 20260509165555 | 16 | 271 | 6.4 | 17.7 | 0.00 | 0.00 | 0.00 | 68 | 1005.7 |
| 20260509165034 | 16 | 205 | 1.6 | 16.1 | 0.00 | 0.00 | 0.00 | 72 | 1005.8 |
| 20260509164543 | 16 | 202 | 3.2 | 11.3 | 0.00 | 0.00 | 0.00 | 72 | 1005.8 |
| 20260509164049 | 15 | 257 | 4.8 | 12.9 | 0.00 | 0.00 | 0.00 | 72 | 1005.9 |
| 20260509163556 | 15 | 215 | 1.6 | 16.1 | 0.00 | 0.00 | 0.00 | 73 | 1006.1 |
| 20260509163002 | 15 | 223 | 6.4 | 16.1 | 0.00 | 0.00 | 0.00 | 72 | 1006.2 |
| 20260509162515 | 15 | 247 | 3.2 | 16.1 | 0.00 | 0.00 | 0.00 | 73 | 1006.2 |
| 20260509162037 | 15 | 161 | 4.8 | 16.1 | 0.00 | 0.00 | 0.00 | 74 | 1006.3 |
| 20260509161552 | 15 | 238 | 4.8 | 14.5 | 0.00 | 0.00 | 0.00 | 74 | 1006.3 |
| 20260509161056 | 15 | 264 | 3.2 | 14.5 | 0.00 | 0.00 | 0.00 | 74 | 1006.3 |
| 20260509160600 | 15 | 185 | 6.4 | 17.7 | 0.00 | 0.00 | 0.00 | 74 | 1006.3 |
| 20260509160502 | 15 | 209 | 8.0 | 17.7 | 0.00 | 0.00 | 0.00 | 73 | 1006.3 |
| 20260509160021 | 15 | 182 | 4.8 | 17.7 | 0.00 | 0.00 | 0.00 | 73 | 1006.3 |
| 20260509155557 | 15 | 185 | 1.6 | 11.3 | 0.00 | 0.00 | 0.00 | 74 | 1006.3 |
| 20260509155103 | 15 | 222 | 1.6 | 11.3 | 0.00 | 0.00 | 0.00 | 74 | 1006.3 |
| 20260509154605 | 15 | 218 | 4.8 | 11.3 | 0.00 | 0.00 | 0.00 | 72 | 1006.3 |
| 20260509154100 | 15 | 179 | 3.2 | 14.5 | 0.00 | 0.00 | 0.00 | 74 | 1006.3 |
| 20260509153506 | 15 | 190 | 3.2 | 14.5 | 0.00 | 0.00 | 0.00 | 75 | 1006.3 |
| 20260509153016 | 15 | 128 | 3.2 | 12.9 | 0.00 | 0.00 | 0.00 | 76 | 1006.3 |
| 20260509152522 | 14 | 177 | 3.2 | 16.1 | 0.00 | 0.00 | 0.00 | 76 | 1006.2 |
| 20260509152006 | 14 | 217 | 6.4 | 16.1 | 0.00 | 0.00 | 0.00 | 77 | 1006.3 |
| 20260509151521 | 14 | 201 | 1.6 | 19.3 | 0.00 | 0.00 | 0.00 | 78 | 1006.3 |
| 20260509151002 | 14 | 182 | 6.4 | 22.5 | 0.00 | 0.00 | 0.00 | 76 | 1006.4 |
| 20260509150520 | 14 | 181 | 8.0 | 16.1 | 0.00 | 0.00 | 0.00 | 75 | 1006.5 |
| 20260509150026 | 15 | 156 | 4.8 | 16.1 | 0.00 | 0.00 | 0.00 | 77 | 1006.4 |
| 20260509145509 | 14 | 146 | 6.4 | 19.3 | 0.00 | 0.00 | 0.00 | 78 | 1006.5 |
| 20260509145006 | 14 | 204 | 6.4 | 16.1 | 0.00 | 0.00 | 0.00 | 77 | 1006.5 |
| 20260509144518 | 14 | 212 | 4.8 | 16.1 | 0.00 | 0.00 | 0.00 | 79 | 1006.5 |
| 20260509144031 | 14 | 211 | 3.2 | 11.3 | 0.00 | 0.00 | 0.00 | 78 | 1006.5 |
| 20260509143534 | 13 | 186 | 1.6 | 17.7 | 0.00 | 0.00 | 0.00 | 80 | 1006.4 |
| 20260509143048 | 13 | 187 | 4.8 | 17.7 | 0.00 | 0.00 | 0.00 | 80 | 1006.3 |
| 20260509142545 | 13 | 236 | 6.4 | 24.1 | 0.00 | 0.00 | 0.00 | 79 | 1006.4 |
| 20260509142054 | 13 | 252 | 8.0 | 14.5 | 0.00 | 0.00 | 0.00 | 78 | 1006.5 |
| 20260509141510 | 13 | 148 | 3.2 | 14.5 | 0.00 | 0.00 | 0.00 | 80 | 1006.4 |
| 20260509141003 | 13 | 170 | 4.8 | 14.5 | 0.00 | 0.00 | 0.00 | 79 | 1006.4 |
| 20260509140550 | 13 | 196 | 3.2 | 11.3 | 0.00 | 0.00 | 0.00 | 80 | 1006.4 |
| 20260509140044 | 13 | 204 | 4.8 | 9.7 | 0.00 | 0.00 | 0.00 | 80 | 1006.4 |
| 20260509135554 | 13 | 178 | 1.6 | 11.3 | 0.00 | 0.00 | 0.00 | 81 | 1006.5 |
| 20260509135059 | 12 | 186 | 0.0 | 24.1 | 0.00 | 0.00 | 0.00 | 81 | 1006.4 |
| 20260509134508 | 13 | 189 | 8.0 | 19.3 | 0.00 | 0.00 | 0.00 | 80 | 1006.3 |
| 20260509134007 | 13 | 213 | 8.0 | 19.3 | 0.00 | 0.00 | 0.00 | 80 | 1006.4 |
| 20260509133521 | 13 | 173 | 4.8 | 14.5 | 0.00 | 0.00 | 0.00 | 82 | 1006.5 |
| 20260509133028 | 12 | 164 | 6.4 | 14.5 | 0.00 | 0.00 | 0.00 | 81 | 1006.5 |
| 20260509132532 | 12 | 126 | 4.8 | 16.1 | 0.00 | 0.00 | 0.00 | 82 | 1006.5 |
| 20260509132011 | 12 | 179 | 3.2 | 16.1 | 0.00 | 0.00 | 0.00 | 82 | 1006.6 |
| 20260509131520 | 12 | 182 | 4.8 | 9.7 | 0.00 | 0.00 | 0.00 | 82 | 1006.7 |
| 20260509131026 | 12 | 190 | 4.8 | 14.5 | 0.00 | 0.00 | 0.00 | 83 | 1006.7 |
| 20260509130536 | 12 | 174 | 4.8 | 14.5 | 0.00 | 0.00 | 0.00 | 83 | 1006.6 |
| 20260509130043 | 12 | 180 | 3.2 | 16.1 | 0.00 | 0.00 | 0.00 | 84 | 1006.7 |
| 20260509125546 | 12 | 178 | 6.4 | 16.1 | 0.00 | 0.00 | 0.00 | 84 | 1006.8 |
| 20260509125023 | 12 | 158 | 6.4 | 16.1 | 0.00 | 0.00 | 0.00 | 84 | 1006.8 |
| 20260509124538 | 12 | 185 | 6.4 | 12.9 | 0.00 | 0.00 | 0.00 | 85 | 1007.0 |
| 20260509124036 | 12 | 195 | 6.4 | 16.1 | 0.00 | 0.00 | 0.00 | 85 | 1007.0 |
| 20260509123542 | 12 | 239 | 8.0 | 16.1 | 0.00 | 0.00 | 0.00 | 85 | 1007.0 |
| 20260509123027 | 11 | 212 | 1.6 | 16.1 | 0.00 | 0.00 | 0.00 | 85 | 1007.0 |
| 20260509122531 | 11 | 141 | 4.8 | 14.5 | 0.00 | 0.00 | 0.00 | 85 | 1007.1 |
| 20260509122042 | 11 | 168 | 3.2 | 14.5 | 0.00 | 0.00 | 0.00 | 85 | 1007.1 |
| 20260509121556 | 11 | 190 | 4.8 | 14.5 | 0.00 | 0.00 | 0.00 | 85 | 1007.2 |
| 20260509121101 | 11 | 196 | 4.8 | 11.3 | 0.00 | 0.00 | 0.00 | 85 | 1007.3 |
| 20260509120508 | 11 | 167 | 4.8 | 16.1 | 0.00 | 0.00 | 0.00 | 86 | 1007.3 |
| 20260509120021 | 11 | 191 | 4.8 | 16.1 | 0.00 | 0.25 | 0.00 | 85 | 1007.3 |
| 20260509115558 | 11 | 193 | 4.8 | 11.3 | 0.00 | 0.25 | 0.00 | 85 | 1007.3 |
| 20260509115001 | 11 | 137 | 4.8 | 11.3 | 0.00 | 0.25 | 0.00 | 86 | 1007.2 |
| 20260509114540 | 11 | 150 | 3.2 | 12.9 | 0.00 | 0.25 | 0.00 | 86 | 1007.3 |
| 20260509114030 | 11 | 209 | 3.2 | 12.9 | 0.00 | 0.25 | 0.00 | 86 | 1007.2 |
| 20260509113536 | 11 | 158 | 3.2 | 12.9 | 0.00 | 0.25 | 0.00 | 86 | 1007.2 |
| 20260509113022 | 11 | 128 | 3.2 | 12.9 | 0.00 | 0.25 | 0.00 | 86 | 1007.2 |
| 20260509112530 | 11 | 141 | 4.8 | 12.9 | 0.00 | 0.25 | 0.00 | 87 | 1007.1 |
| 20260509112041 | 11 | 123 | 3.2 | 17.7 | 0.00 | 0.25 | 0.00 | 87 | 1007.1 |
| 20260509111540 | 11 | 179 | 1.6 | 17.7 | 0.00 | 0.25 | 0.00 | 87 | 1007.1 |
| 20260509111014 | 11 | 150 | 3.2 | 12.9 | 0.00 | 0.25 | 0.00 | 87 | 1007.1 |
| 20260509110530 | 11 | 190 | 1.6 | 9.7 | 0.00 | 0.25 | 0.00 | 87 | 1007.1 |
| 20260509110024 | 11 | 115 | 3.2 | 9.7 | 0.00 | 0.30 | 0.00 | 88 | 1007.1 |
| 20260509105603 | 11 | 177 | 1.6 | 8.0 | 0.00 | 0.30 | 0.00 | 88 | 1007.1 |
| 20260509105502 | 11 | 177 | 1.6 | 8.0 | 0.00 | 0.30 | 0.00 | 88 | 1007.1 |
| 20260509105010 | 11 | 140 | 3.2 | 6.4 | 0.00 | 0.30 | 0.00 | 88 | 1007.1 |
| 20260509104522 | 11 | 141 | 3.2 | 9.7 | 0.00 | 0.30 | 0.00 | 88 | 1007.1 |
| 20260509104025 | 11 | 138 | 3.2 | 9.7 | 0.00 | 0.30 | 0.00 | 88 | 1007.1 |
| 20260509103509 | 11 | 184 | 3.2 | 11.3 | 0.00 | 0.30 | 0.00 | 87 | 1007.3 |
| 20260509103021 | 11 | 195 | 0.0 | 11.3 | 0.00 | 0.30 | 0.00 | 87 | 1007.2 |
| 20260509102559 | 11 | 202 | 3.2 | 9.7 | 0.00 | 0.30 | 0.00 | 87 | 1007.2 |
| 20260509102501 | 11 | 172 | 1.6 | 4.8 | 0.00 | 0.30 | 0.00 | 87 | 1007.2 |
| 20260509102104 | 11 | 180 | 1.6 | 9.7 | 0.00 | 0.30 | 0.00 | 87 | 1007.2 |
| 20260509101550 | 11 | 185 | 1.6 | 9.7 | 0.00 | 0.30 | 0.00 | 87 | 1007.3 |
| 20260509101058 | 11 | 186 | 0.0 | 9.7 | 0.00 | 0.30 | 0.00 | 87 | 1007.3 |
| 20260509100509 | 11 | 182 | 3.2 | 9.7 | 0.00 | 0.30 | 0.00 | 86 | 1007.3 |
| 20260509100026 | 11 | 230 | 1.6 | 9.7 | 0.00 | 0.48 | 0.00 | 86 | 1007.3 |
| 20260509095546 | 11 | 155 | 3.2 | 12.9 | 0.00 | 0.48 | 0.00 | 87 | 1007.2 |
| 20260509095040 | 11 | 184 | 3.2 | 12.9 | 0.00 | 0.48 | 0.00 | 86 | 1007.3 |
| 20260509094531 | 11 | 173 | 3.2 | 9.7 | 0.00 | 0.48 | 0.00 | 86 | 1007.3 |
| 20260509094033 | 11 | 177 | 3.2 | 9.7 | 0.00 | 0.48 | 0.00 | 86 | 1007.3 |
| 20260509093522 | 11 | 165 | 3.2 | 9.7 | 0.00 | 0.48 | 0.00 | 86 | 1007.3 |
| 20260509093102 | 11 | 186 | 3.2 | 8.0 | 0.00 | 0.48 | 0.00 | 86 | 1007.3 |
| 20260509092511 | 11 | 184 | 3.2 | 8.0 | 0.00 | 0.48 | 0.00 | 86 | 1007.3 |
| 20260509092003 | 11 | 187 | 3.2 | 9.7 | 0.00 | 0.48 | 0.00 | 86 | 1007.4 |
| 20260509091513 | 11 | 183 | 1.6 | 9.7 | 0.00 | 0.48 | 0.00 | 86 | 1007.4 |
| 20260509091042 | 11 | 199 | 1.6 | 4.8 | 0.00 | 0.48 | 0.00 | 86 | 1007.3 |
| 20260509090522 | 11 | 204 | 1.6 | 6.4 | 0.00 | 0.48 | 0.00 | 86 | 1007.4 |
| 20260509090047 | 11 | 215 | 1.6 | 6.4 | 0.00 | 0.48 | 0.00 | 86 | 1007.5 |
| 20260509085528 | 11 | 208 | 0.0 | 6.4 | 0.00 | 0.48 | 0.00 | 86 | 1007.5 |
| 20260509085033 | 11 | 207 | 1.6 | 6.4 | 0.00 | 0.48 | 0.00 | 86 | 1007.5 |
| 20260509084546 | 11 | 209 | 1.6 | 4.8 | 0.00 | 0.48 | 0.00 | 86 | 1007.5 |
| 20260509084050 | 11 | 199 | 1.6 | 9.7 | 0.00 | 0.48 | 0.00 | 85 | 1007.6 |
| 20260509083557 | 11 | 194 | 0.0 | 9.7 | 0.00 | 0.48 | 0.00 | 86 | 1007.5 |
| 20260509083023 | 11 | 180 | 0.0 | 8.0 | 0.00 | 0.48 | 0.00 | 86 | 1007.5 |
| 20260509082527 | 11 | 182 | 1.6 | 11.3 | 0.00 | 0.48 | 0.00 | 86 | 1007.5 |
| 20260509082029 | 11 | 175 | 3.2 | 11.3 | 0.00 | 0.48 | 0.00 | 86 | 1007.5 |
| 20260509081528 | 11 | 194 | 1.6 | 8.0 | 0.00 | 0.48 | 0.00 | 86 | 1007.5 |
| 20260509081058 | 11 | 188 | 1.6 | 8.0 | 0.00 | 0.48 | 0.00 | 86 | 1007.5 |
| 20260509080515 | 11 | 159 | 1.6 | 4.8 | 0.00 | 0.48 | 0.00 | 85 | 1007.5 |
| 20260509080015 | 11 | 157 | 0.0 | 8.0 | 0.00 | 0.48 | 0.00 | 85 | 1007.6 |
| 20260509075529 | 11 | 218 | 1.6 | 8.0 | 0.00 | 0.48 | 0.00 | 85 | 1007.6 |
| 20260509075037 | 11 | 181 | 3.2 | 8.0 | 0.00 | 0.48 | 0.00 | 85 | 1007.7 |
| 20260509074541 | 11 | 192 | 0.0 | 6.4 | 0.00 | 0.48 | 0.00 | 85 | 1007.7 |
| 20260509074006 | 11 | 179 | 0.0 | 8.0 | 0.00 | 0.48 | 0.00 | 85 | 1007.8 |
| 20260509073521 | 11 | 179 | 3.2 | 11.3 | 0.00 | 0.48 | 0.00 | 85 | 1007.8 |
| 20260509073115 | 11 | 188 | 3.2 | 14.5 | 0.00 | 0.48 | 0.00 | 85 | 1007.8 |
| 20260509072514 | 11 | 172 | 4.8 | 8.0 | 0.00 | 0.48 | 0.00 | 85 | 1007.8 |
| 20260509072017 | 11 | 202 | 1.6 | 6.4 | 0.00 | 0.48 | 0.00 | 85 | 1007.9 |
| 20260509071522 | 11 | 210 | 1.6 | 6.4 | 0.00 | 0.48 | 0.00 | 85 | 1008.0 |
| 20260509071028 | 11 | 210 | 1.6 | 6.4 | 0.00 | 0.48 | 0.00 | 85 | 1008.0 |
| 20260509070509 | 11 | 139 | 1.6 | 11.3 | 0.00 | 0.48 | 0.00 | 85 | 1007.9 |
| 20260509065515 | 11 | 148 | 3.2 | 8.0 | 0.00 | 0.48 | 0.00 | 84 | 1007.9 |
| 20260509065005 | 11 | 189 | 3.2 | 8.0 | 0.00 | 0.48 | 0.00 | 84 | 1008.0 |
| 20260509064513 | 11 | 135 | 3.2 | 9.7 | 0.00 | 0.48 | 0.00 | 84 | 1008.1 |
| 20260509064031 | 11 | 148 | 3.2 | 9.7 | 0.00 | 0.48 | 0.00 | 84 | 1008.2 |
| 20260509063534 | 11 | 178 | 3.2 | 9.7 | 0.00 | 0.48 | 0.00 | 84 | 1008.2 |
| 20260509063048 | 11 | 160 | 3.2 | 9.7 | 0.00 | 0.48 | 0.00 | 83 | 1008.3 |
| 20260509062545 | 11 | 180 | 1.6 | 11.3 | 0.00 | 0.48 | 0.00 | 83 | 1008.3 |
| 20260509062026 | 11 | 186 | 1.6 | 8.0 | 0.00 | 0.48 | 0.00 | 83 | 1008.3 |
| 20260509061539 | 11 | 186 | 3.2 | 9.7 | 0.00 | 0.48 | 0.00 | 83 | 1008.4 |
| 20260509061044 | 11 | 190 | 3.2 | 9.7 | 0.00 | 0.48 | 0.00 | 83 | 1008.5 |
| 20260509060551 | 11 | 174 | 1.6 | 9.7 | 0.00 | 0.48 | 0.00 | 83 | 1008.5 |
| 20260509060002 | 11 | 140 | 3.2 | 12.9 | 0.00 | 0.48 | 0.00 | 83 | 1008.7 |
| 20260509055547 | 11 | 186 | 4.8 | 12.9 | 0.00 | 0.48 | 0.00 | 83 | 1008.8 |
| 20260509055038 | 11 | 202 | 4.8 | 16.1 | 0.00 | 0.48 | 0.00 | 83 | 1008.8 |
| 20260509054530 | 11 | 180 | 6.4 | 16.1 | 0.00 | 0.48 | 0.00 | 83 | 1009.0 |
| 20260509054020 | 11 | 189 | 3.2 | 12.9 | 0.00 | 0.48 | 0.00 | 83 | 1009.0 |
| 20260509053523 | 11 | 188 | 0.0 | 14.5 | 0.00 | 0.48 | 0.00 | 83 | 1009.0 |
| 20260509053033 | 11 | 165 | 3.2 | 14.5 | 0.00 | 0.48 | 0.00 | 83 | 1009.0 |
| 20260509052513 | 11 | 175 | 3.2 | 11.3 | 0.00 | 0.48 | 0.00 | 83 | 1009.0 |
| 20260509052024 | 11 | 175 | 4.8 | 14.5 | 0.00 | 0.48 | 0.00 | 83 | 1009.0 |
| 20260509051530 | 11 | 150 | 4.8 | 14.5 | 0.00 | 0.48 | 0.00 | 83 | 1009.1 |
| 20260509051039 | 11 | 202 | 3.2 | 11.3 | 0.00 | 0.48 | 0.00 | 82 | 1009.2 |
| 20260509050545 | 11 | 207 | 1.6 | 14.5 | 0.00 | 0.48 | 0.00 | 83 | 1009.3 |
| 20260509050057 | 11 | 183 | 4.8 | 14.5 | 0.00 | 0.48 | 0.00 | 83 | 1009.4 |
| 20260509045531 | 11 | 184 | 3.2 | 12.9 | 0.00 | 0.48 | 0.00 | 82 | 1009.4 |
| 20260509045044 | 11 | 191 | 4.8 | 12.9 | 0.00 | 0.48 | 0.00 | 82 | 1009.3 |
| 20260509044550 | 11 | 190 | 3.2 | 9.7 | 0.00 | 0.48 | 0.00 | 82 | 1009.3 |
| 20260509044057 | 11 | 184 | 0.0 | 4.8 | 0.00 | 0.48 | 0.00 | 81 | 1009.4 |
| 20260509043542 | 11 | 184 | 0.0 | 4.8 | 0.00 | 0.48 | 0.00 | 80 | 1009.5 |
| 20260509043050 | 11 | 184 | 0.0 | 8.0 | 0.00 | 0.48 | 0.00 | 80 | 1009.6 |
| 20260509042558 | 11 | 184 | 3.2 | 9.7 | 0.00 | 0.48 | 0.00 | 80 | 1009.7 |
| 20260509042503 | 11 | 186 | 0.0 | 9.7 | 0.00 | 0.48 | 0.00 | 80 | 1009.7 |
| 20260509042002 | 11 | 186 | 3.2 | 9.7 | 0.00 | 0.48 | 0.00 | 79 | 1009.8 |
| 20260509041519 | 11 | 193 | 1.6 | 9.7 | 0.00 | 0.48 | 0.00 | 79 | 1009.8 |
| 20260509041053 | 11 | 180 | 1.6 | 9.7 | 0.00 | 0.48 | 0.00 | 79 | 1009.8 |
| 20260509040603 | 11 | 182 | 4.8 | 9.7 | 0.00 | 0.48 | 0.00 | 78 | 1009.9 |
| 20260509040502 | 11 | 183 | 3.2 | 9.7 | 0.00 | 0.48 | 0.00 | 78 | 1009.9 |
| 20260509040125 | 11 | 188 | 1.6 | 11.3 | 0.00 | 0.48 | 0.48 | 78 | 1009.9 |
| 20260509035518 | 11 | 182 | 3.2 | 11.3 | 0.00 | 0.48 | 0.48 | 77 | 1009.8 |
| 20260509035057 | 11 | 153 | 3.2 | 8.0 | 0.00 | 0.48 | 0.48 | 76 | 1009.9 |
| 20260509034509 | 11 | 188 | 3.2 | 8.0 | 0.00 | 0.48 | 0.48 | 75 | 1009.9 |
| 20260509034017 | 11 | 190 | 1.6 | 6.4 | 0.00 | 0.48 | 0.48 | 74 | 1009.9 |
| 20260509033559 | 11 | 180 | 1.6 | 4.8 | 0.00 | 0.48 | 0.48 | 73 | 1009.9 |
| 20260509033507 | 11 | 180 | 1.6 | 4.8 | 0.00 | 0.48 | 0.48 | 73 | 1010.0 |
| 20260509033025 | 11 | 206 | 1.6 | 4.8 | 0.00 | 0.48 | 0.48 | 73 | 1010.0 |
| 20260509032526 | 11 | 223 | 1.6 | 3.2 | 0.00 | 0.48 | 0.48 | 71 | 1010.0 |
| 20260509032003 | 11 | 223 | 1.6 | 3.2 | 0.00 | 0.48 | 0.48 | 71 | 1010.1 |
| 20260509031518 | 11 | 223 | 1.6 | 3.2 | 0.00 | 0.48 | 0.48 | 70 | 1010.2 |